Alcalde, New Mexico
Current Conditions -  °F | °C
As of 12:55 AM on Friday 24 Oct 2014 (Local Time) from KLAM Reporting Station
Clear Clear  
Wind Chill: 55°   Ceiling: Unl
Heat Index: 55°   Visibility: 10mi
Dew Point: 28°   Wind: 0mph
Humidity: 36%   Direction: NA
Pressure: 30.38"   Gusts: NA
Location:  36.09°N, 106.06°W
Report Text: KLAM 240655Z AUTO 00000KT 10SM CLR 13/M02 A3038 RMK AO2 T01301020
Loading
Personal Weather Stations






























Interactive Weather Map
Tropical Storm Tracking
New forecast layout! Learn more

10-Day Weather Forecast

Advertisements
Track Severe Weather on mobile